Bellwood, Illinois
Current Conditions -  °F | °C
As of 6:51 AM on Friday 19 Dec 2014 (Local Time) from KORD Reporting Station
Overcast Overcast  
Wind Chill: -7°   Ceiling: 2600
Heat Index: -2°   Visibility: 10mi
Dew Point: -6°   Wind: 8mph
Humidity: 78%   Direction: 20°NNE
Pressure: 30.29"   Gusts: NA
Location:  41.88°N, 87.87°W
Report Text: KORD 191251Z 02007KT 10SM OVC026 M02/M06 A3029 RMK AO2 SLP265 T10221056
Loading
Personal Weather Stations






























Interactive Weather Map New forecast layout! Learn more

10-Day Weather Forecast

Advertisements
Track Severe Weather on mobile